Malagon, Spain
Current Conditions -  °F | °C
As of 8:00 PM on Saturday 20 Dec 2014 (Local Time) from LEAO Reporting Station
Haze Haze  
Wind Chill:   Ceiling: Unl
Heat Index:   Visibility: 1.3mi
Dew Point:   Wind: 0mph
Humidity: 100%   Direction: NA
Pressure: 30.48"   Gusts: NA
Location:  39.17°N, 3.85°W
Report Text: LEAO 201900Z 00000KT 2200 BR NSC 04/04 Q1032
Loading
Personal Weather Stations






























Interactive Weather Map New forecast layout! Learn more

10-Day Weather Forecast

Advertisements
Track Severe Weather on mobile